Flight Track Log - Related Links

Times and Time Zones

All times are in EST time to prevent confusion due to time zone crossing. See the PDT4314 flight status page for this flight to view local times or setup timezone preferences in your user account.

Time Position Orientation Groundspeed Altitude Reporting Facility
EST Latitude Longitude Course Direction KTS MPH feet Rate Location/Type
Tue 05:42:54 PM 39.9000 -75.2333 294° West 105 121 600  Level Philadelphia TRACON
Tue 05:44:06 PM 39.9167 -75.2833 294° West 135 155 2,100 1,091 Climbing Philadelphia TRACON
Tue 05:45:06 PM 39.9333 -75.3333 294° West 158 182 3,000 955 Climbing Philadelphia TRACON
Tue 05:46:18 PM 39.9611 -75.3775 309° West 156 180 4,200 1,000 Climbing New York Center
Tue 05:47:18 PM 39.9956 -75.4017 332° Northwest 150 173 5,200 1,150 Climbing New York Center
Tue 05:48:18 PM 40.0339 -75.4311 330° Northwest 150 173 6,500 1,091 Climbing New York Center
Tue 05:49:19 PM 40.0706 -75.4528 336° Northwest 150 173 7,400 950 Climbing New York Center
Tue 05:50:18 PM 40.1114 -75.4772 335° Northwest 150 173 8,400 1,008 Climbing New York Center
Tue 05:51:18 PM 40.1456 -75.5067 327° Northwest 155 178 9,400 1,050 Climbing New York Center
Tue 05:52:18 PM 40.1864 -75.5311 335° Northwest 155 178 10,500 1,041 Climbing New York Center
Tue 05:53:19 PM 40.2250 -75.5556 334° Northwest 155 178 11,500 750 Climbing New York Center
Tue 05:54:18 PM 40.2481 -75.6006 304° West 144 166 12,000 252 Climbing New York Center
Tue 05:55:18 PM 40.2925 -75.6336 330° Northwest 154 177 12,000  Level New York Center
Tue 05:56:18 PM 40.3439 -75.6536 343° North 191 220 12,000  Level New York Center
Tue 05:57:18 PM 40.4008 -75.6903 334° Northwest 197 227 12,000  Level New York Center
Tue 05:58:18 PM 40.4536 -75.7214 336° Northwest 202 232 12,000  Level New York Center
Tue 05:59:18 PM 40.5042 -75.7550 333° Northwest 202 232 12,000  Level New York Center
Tue 06:00:18 PM 40.5531 -75.7833 336° Northwest 208 239 12,000  Level New York Center
Tue 06:01:18 PM 40.6061 -75.8089 340° North 213 245 12,000  Level New York Center
Tue 06:02:18 PM 40.6606 -75.8514 329° Northwest 213 245 12,000  Level New York Center
Tue 06:03:18 PM 40.7111 -75.8878 331° Northwest 208 239 12,000  Level New York Center
Tue 06:04:18 PM 40.7642 -75.9164 338° Northwest 203 234 12,000  Level New York Center
Tue 06:05:18 PM 40.8133 -75.9367 343° North 203 234 12,000  Level New York Center
Tue 06:06:19 PM 40.8756 -75.9414 357° North 211 243 12,000  Level New York Center
Tue 06:07:18 PM 40.9394 -75.9572 349° North 218 251 12,000  Level New York Center
Tue 06:08:18 PM 40.9994 -75.9672 353° North 218 251 12,000  Level New York Center
Tue 06:09:18 PM 41.0556 -75.9717 357° North 218 251 12,000  Level New York Center
Tue 06:10:18 PM 41.1156 -75.9789 355° North 218 251 12,000  Level New York Center
Tue 06:11:18 PM 41.1794 -75.9922 351° North 218 251 12,000  Level New York Center
Tue 06:12:19 PM 41.2397 -75.9994 355° North 218 251 12,000  Level New York Center
Tue 06:13:18 PM 41.2997 -76.0069 355° North 218 251 12,000  Level New York Center
Tue 06:14:18 PM 41.3594 -76.0200 351° North 218 251 12,000  Level New York Center
Tue 06:15:18 PM 41.4133 -76.0269 354° North 218 251 12,000  Level New York Center
Tue 06:16:18 PM 41.4797 -76.0347 355° North 218 251 12,000  Level New York Center
Tue 06:17:18 PM 41.5417 -76.0481 351° North 218 251 12,000 -250 Level New York Center
Tue 06:18:18 PM 41.6036 -76.0586 353° North 218 251 11,500 -750 Descending New York Center
Tue 06:19:18 PM 41.6617 -76.0631 357° North 228 262 10,500 -950 Descending New York Center
Tue 06:20:18 PM 41.7258 -76.0736 353° North 233 268 9,600 -1,050 Descending New York Center
Tue 06:21:18 PM 41.7964 -76.0792 357° North 233 268 8,400 -1,250 Descending New York Center
Tue 06:22:18 PM 41.8597 -76.0592 13° North 233 268 7,100 -1,350 Descending New York Center
Tue 06:23:18 PM 41.9267 -76.0508 North 238 274 5,700 -1,200 Descending New York Center
Tue 06:24:18 PM 41.9811 -76.0439 North 232 267 4,700 -850 Descending New York Center
Tue 06:25:18 PM 42.0381 -76.0289 11° North 216 249 4,000 -550 Descending New York Center
Tue 06:26:18 PM 42.0997 -76.0003 19° North 211 243 3,600 -500 Descending New York Center
Tue 06:27:18 PM 42.1406 -75.9728 27° Northeast 186 214 3,000 -600 Descending New York Center
Tue 06:28:18 PM 42.1661 -75.9553 27° Northeast 141 162 2,400 -450 Descending New York Center
Tue 06:29:18 PM 42.1958 -75.9436 16° North 116 133 2,100 4,800 Descending New York Center
Tue 06:30:18 PM 42.2281 -75.9236 25° Northeast 116 133 12,000 4,950 Climbing New York Center
Tue 06:31:18 PM 42.2600 -75.9064 22° Northeast 116 133 12,000  Level New York Center
Tue 06:32:18 PM 42.2919 -75.8867 25° Northeast 116 133 12,000  Level New York Center
Tue 06:33:18 PM 42.3111 -75.8769 21° North 116 133 12,000  Level New York Center

Login

Don't have an account? Register now (free) for customized features, flight alerts, and more!